createdAt,value
2018-05-25T00:01:12.115Z,13.37
2018-05-25T00:03:38.336Z,12.10
2018-05-25T00:06:04.545Z,11.47
2018-05-25T00:08:31.415Z,10.70
2018-05-25T00:10:58.866Z,12.10
2018-05-25T00:13:26.876Z,11.57
2018-05-25T00:15:54.062Z,11.53
2018-05-25T00:18:21.256Z,11.83
2018-05-25T00:20:48.549Z,10.73
2018-05-25T00:23:15.575Z,12.43
2018-05-25T00:25:41.798Z,10.93
2018-05-25T00:28:08.065Z,11.43
2018-05-25T00:30:34.296Z,17.90
2018-05-25T00:33:01.442Z,12.07
2018-05-25T00:35:28.228Z,11.10
2018-05-25T00:37:56.187Z,11.73
2018-05-25T00:40:23.713Z,11.80
2018-05-25T00:42:50.045Z,11.07
2018-05-25T00:45:16.799Z,11.83
2018-05-25T00:47:42.985Z,12.13
2018-05-25T00:50:10.110Z,11.50
2018-05-25T00:52:36.706Z,11.70
2018-05-25T00:55:16.969Z,10.77
2018-05-25T00:57:43.787Z,10.43
2018-05-25T01:00:10.316Z,10.67
2018-05-25T01:02:37.334Z,10.93
2018-05-25T01:05:03.646Z,13.70
2018-05-25T01:07:30.615Z,11.87
2018-05-25T01:09:57.628Z,11.50
2018-05-25T01:12:24.596Z,11.00
2018-05-25T01:14:51.484Z,9.37
2018-05-25T01:17:17.709Z,10.07
2018-05-25T01:19:44.943Z,11.50
2018-05-25T01:22:11.152Z,12.27
2018-05-25T01:24:37.378Z,10.60
2018-05-25T01:27:04.297Z,11.37
2018-05-25T01:29:31.839Z,10.70
2018-05-25T01:31:58.229Z,10.57
2018-05-25T01:34:24.506Z,11.90
2018-05-25T01:36:51.351Z,10.80
2018-05-25T01:39:18.413Z,9.80
2018-05-25T01:41:45.905Z,11.07
2018-05-25T01:44:13.222Z,11.27
2018-05-25T01:46:40.786Z,10.30
2018-05-25T01:49:07.786Z,10.97
2018-05-25T01:51:34.229Z,10.70
2018-05-25T01:56:36.044Z,10.87
2018-05-25T01:59:02.371Z,11.07
2018-05-25T02:01:29.343Z,11.33
2018-05-25T02:03:55.701Z,10.70
2018-05-25T02:06:23.308Z,12.30
2018-05-25T02:08:50.259Z,10.40
2018-05-25T02:11:17.106Z,10.30
2018-05-25T02:13:44.028Z,10.93
2018-05-25T02:16:11.245Z,9.47
2018-05-25T02:18:37.509Z,10.90
2018-05-25T02:21:05.954Z,11.17
2018-05-25T02:23:33.198Z,11.63
2018-05-25T02:25:59.913Z,9.93
2018-05-25T02:28:26.310Z,11.23
2018-05-25T02:30:53.551Z,11.27
2018-05-25T02:33:20.519Z,10.93
2018-05-25T02:35:48.047Z,10.20
2018-05-25T02:38:15.704Z,10.67
2018-05-25T02:40:42.522Z,12.50
2018-05-25T02:43:08.729Z,10.30
2018-05-25T02:45:35.389Z,11.37
2018-05-25T02:48:02.212Z,11.83
2018-05-25T02:50:28.418Z,14.03
2018-05-25T02:52:55.908Z,11.53
2018-05-25T02:55:22.676Z,12.87
2018-05-25T02:57:49.444Z,11.20
2018-05-25T03:00:16.409Z,11.93
2018-05-25T03:02:43.153Z,13.40
2018-05-25T03:05:09.879Z,13.20
2018-05-25T03:07:37.345Z,12.03
2018-05-25T03:10:04.492Z,15.20
2018-05-25T03:12:31.358Z,12.33
2018-05-25T03:14:59.397Z,12.80
2018-05-25T03:17:26.905Z,14.10
2018-05-25T03:19:53.366Z,13.33
2018-05-25T03:22:21.072Z,13.83
2018-05-25T03:24:48.635Z,13.10
2018-05-25T03:27:14.868Z,12.93
2018-05-25T03:29:41.082Z,11.03
2018-05-25T03:32:07.325Z,12.70
2018-05-25T03:34:33.589Z,11.70
2018-05-25T03:37:00.747Z,12.80
2018-05-25T03:39:27.991Z,11.83
2018-05-25T03:41:54.388Z,12.70
2018-05-25T03:44:21.106Z,13.10
2018-05-25T03:46:48.043Z,14.73
2018-05-25T03:49:14.279Z,13.00
2018-05-25T03:51:40.509Z,17.30
2018-05-25T03:54:07.351Z,12.33
2018-05-25T03:56:34.295Z,11.10
2018-05-25T03:59:13.526Z,13.03
2018-05-25T04:01:52.003Z,11.53
2018-05-25T04:04:18.293Z,12.53
2018-05-25T04:06:46.829Z,12.40
2018-05-25T04:09:13.808Z,12.20
2018-05-25T04:11:40.987Z,15.17
2018-05-25T04:14:07.229Z,12.10
2018-05-25T04:16:33.752Z,12.17
2018-05-25T04:19:00.552Z,12.77
2018-05-25T04:21:26.769Z,16.13
2018-05-25T04:23:53.395Z,12.30
2018-05-25T04:26:21.573Z,12.93
2018-05-25T04:28:48.542Z,12.73
2018-05-25T04:31:14.775Z,13.43
2018-05-25T04:33:40.964Z,14.37
2018-05-25T04:36:08.235Z,15.17
2018-05-25T04:38:35.881Z,15.33
2018-05-25T04:41:04.328Z,14.73
2018-05-25T04:43:30.549Z,13.80
2018-05-25T04:45:56.789Z,14.37
2018-05-25T04:48:23.883Z,13.20
2018-05-25T04:50:52.447Z,12.50
2018-05-25T04:53:19.392Z,12.17
2018-05-25T04:55:47.056Z,12.47
2018-05-25T04:58:14.468Z,11.93
2018-05-25T05:00:42.094Z,12.60
2018-05-25T05:03:08.984Z,11.00
2018-05-25T05:05:35.828Z,12.10
2018-05-25T05:08:02.439Z,12.43
2018-05-25T05:10:30.196Z,13.03
2018-05-25T05:12:57.064Z,12.10
2018-05-25T05:15:24.779Z,12.10
2018-05-25T05:17:51.030Z,12.97
2018-05-25T05:20:17.214Z,13.30
2018-05-25T05:22:44.049Z,12.90
2018-05-25T05:25:11.279Z,15.57
2018-05-25T05:27:38.784Z,12.97
2018-05-25T05:30:05.552Z,14.40
2018-05-25T05:32:31.789Z,14.93
2018-05-25T05:34:58.003Z,14.60
2018-05-25T05:37:25.180Z,15.50
2018-05-25T05:39:51.421Z,14.77
2018-05-25T05:42:18.140Z,17.30
2018-05-25T05:44:44.919Z,15.63
2018-05-25T05:47:12.975Z,16.33
2018-05-25T05:49:39.744Z,15.10
2018-05-25T05:52:07.261Z,15.47
2018-05-25T05:54:33.628Z,15.90
2018-05-25T05:57:00.288Z,15.10
2018-05-25T05:59:26.941Z,15.27
2018-05-25T06:01:54.059Z,15.80
2018-05-25T06:04:21.123Z,14.87
2018-05-25T06:06:47.484Z,13.17
2018-05-25T06:09:13.867Z,16.53
2018-05-25T06:11:41.391Z,14.07
2018-05-25T06:14:08.389Z,13.53
2018-05-25T06:16:35.105Z,14.07
2018-05-25T06:19:01.371Z,14.13
2018-05-25T06:21:27.628Z,14.70
2018-05-25T06:23:53.997Z,14.50
2018-05-25T06:26:20.320Z,14.37
2018-05-25T06:28:48.098Z,15.70
2018-05-25T06:31:14.871Z,21.80
2018-05-25T06:33:41.105Z,16.17
2018-05-25T06:36:07.345Z,14.40
2018-05-25T06:38:34.196Z,14.97
2018-05-25T06:41:00.903Z,15.80
2018-05-25T06:43:27.548Z,13.47
2018-05-25T06:45:53.795Z,16.10
2018-05-25T06:48:20.244Z,16.13
2018-05-25T06:50:47.842Z,17.23
2018-05-25T06:53:15.048Z,15.10
2018-05-25T06:55:41.307Z,15.90
2018-05-25T06:58:07.796Z,16.17
2018-05-25T07:00:34.043Z,12.63
2018-05-25T07:03:00.849Z,13.73
2018-05-25T07:05:27.641Z,12.93
2018-05-25T07:07:55.557Z,13.60
2018-05-25T07:10:21.773Z,14.43
2018-05-25T07:12:49.016Z,12.97
2018-05-25T07:15:15.870Z,12.90
2018-05-25T07:17:42.114Z,14.27
2018-05-25T07:20:10.318Z,13.87
2018-05-25T07:22:36.529Z,15.43
2018-05-25T07:25:03.148Z,19.67
2018-05-25T07:27:29.413Z,13.50
2018-05-25T07:29:55.877Z,12.17
2018-05-25T07:32:23.083Z,12.17
2018-05-25T07:34:49.348Z,12.40
2018-05-25T07:37:17.235Z,11.60
2018-05-25T07:39:43.495Z,10.93
2018-05-25T07:42:09.722Z,10.47
2018-05-25T07:44:36.944Z,11.03
2018-05-25T07:47:03.217Z,11.10
2018-05-25T07:49:30.214Z,12.03
2018-05-25T07:51:56.551Z,11.70
2018-05-25T07:54:23.202Z,11.07
2018-05-25T07:56:50.201Z,11.47
2018-05-25T07:59:17.836Z,12.23
2018-05-25T08:01:44.768Z,13.47
2018-05-25T08:04:11.390Z,10.80
2018-05-25T08:06:39.029Z,10.93
2018-05-25T08:09:05.328Z,11.57
2018-05-25T08:11:32.565Z,10.47
2018-05-25T08:13:58.788Z,11.43
2018-05-25T08:16:25.813Z,11.47
2018-05-25T08:18:53.044Z,11.20
2018-05-25T08:21:19.551Z,11.70
2018-05-25T08:23:47.127Z,10.17
2018-05-25T08:26:14.098Z,12.10
2018-05-25T08:28:40.352Z,11.87
2018-05-25T08:31:07.557Z,12.33
2018-05-25T08:33:34.993Z,11.80
2018-05-25T08:36:02.560Z,12.73
2018-05-25T08:38:29.458Z,12.87
2018-05-25T08:40:57.176Z,14.57
2018-05-25T08:43:23.500Z,11.23
2018-05-25T08:45:50.812Z,13.23
2018-05-25T08:48:17.397Z,11.60
2018-05-25T08:50:44.198Z,10.63
2018-05-25T08:53:10.725Z,12.23
2018-05-25T08:55:37.717Z,12.43
2018-05-25T08:58:04.055Z,12.80
2018-05-25T09:00:30.943Z,12.80
2018-05-25T09:02:57.384Z,12.27
2018-05-25T09:05:24.379Z,10.83
2018-05-25T09:07:51.557Z,10.50
2018-05-25T09:10:18.679Z,10.83
2018-05-25T09:12:45.557Z,12.87
2018-05-25T09:15:11.849Z,10.97
2018-05-25T09:17:38.640Z,11.97
2018-05-25T09:20:05.847Z,10.60
2018-05-25T09:22:32.600Z,11.43
2018-05-25T09:24:59.420Z,10.87
2018-05-25T09:27:26.211Z,10.60
2018-05-25T09:29:53.011Z,10.80
2018-05-25T09:32:19.725Z,10.93
2018-05-25T09:34:47.793Z,10.63
2018-05-25T09:37:14.795Z,10.60
2018-05-25T09:39:40.993Z,10.23
2018-05-25T09:42:07.461Z,10.77
2018-05-25T09:44:34.712Z,11.40
2018-05-25T09:47:01.369Z,10.47
2018-05-25T09:49:28.565Z,11.87
2018-05-25T09:51:55.001Z,10.17
2018-05-25T09:54:21.224Z,11.23
2018-05-25T09:56:59.599Z,9.50
2018-05-25T09:59:25.885Z,10.37
2018-05-25T10:01:53.042Z,10.20
2018-05-25T10:04:20.303Z,8.67
2018-05-25T10:06:46.605Z,10.33
2018-05-25T10:09:13.621Z,7.97
2018-05-25T10:11:41.605Z,5.90
2018-05-25T10:14:10.883Z,6.20
2018-05-25T10:16:38.391Z,7.80
2018-05-25T10:19:05.163Z,6.70
2018-05-25T10:21:31.824Z,5.87
2018-05-25T10:23:59.447Z,8.97
2018-05-25T10:26:26.262Z,7.70
2018-05-25T10:38:37.557Z,12.20
2018-05-25T10:41:04.705Z,10.80
2018-05-25T10:43:32.599Z,10.67
2018-05-25T10:45:58.805Z,10.80
2018-05-25T10:48:25.789Z,9.30
2018-05-25T10:50:52.041Z,10.80
2018-05-25T10:53:18.805Z,9.97
2018-05-25T10:55:45.142Z,14.37
2018-05-25T10:58:12.094Z,11.03
2018-05-25T11:00:39.762Z,10.27
2018-05-25T11:03:06.705Z,9.03
2018-05-25T11:05:33.669Z,14.70
2018-05-25T11:07:59.977Z,9.80
2018-05-25T11:10:27.554Z,8.30
2018-05-25T11:12:53.848Z,8.30
2018-05-25T11:15:20.304Z,8.67
2018-05-25T11:17:47.936Z,8.47
2018-05-25T11:20:14.170Z,8.57
2018-05-25T11:22:40.966Z,8.27
2018-05-25T11:25:07.632Z,8.87
2018-05-25T11:27:33.860Z,7.70
2018-05-25T11:30:00.722Z,8.43
2018-05-25T11:32:27.938Z,7.13
2018-05-25T11:34:54.299Z,6.60
2018-05-25T11:37:21.302Z,6.43
2018-05-25T11:39:47.601Z,6.97
2018-05-25T11:42:15.133Z,5.37
2018-05-25T11:44:41.463Z,6.10
2018-05-25T11:47:08.818Z,6.20
2018-05-25T11:49:36.018Z,5.60
2018-05-25T11:52:02.269Z,5.47
2018-05-25T11:54:29.024Z,6.57
2018-05-25T11:56:55.813Z,7.60
2018-05-25T11:59:22.685Z,8.57
2018-05-25T12:01:49.025Z,10.30
2018-05-25T12:04:15.221Z,8.17
2018-05-25T12:06:41.490Z,8.33
2018-05-25T12:09:08.113Z,11.60
2018-05-25T12:11:35.154Z,8.60
2018-05-25T12:14:01.442Z,9.03
2018-05-25T12:16:28.550Z,9.83
2018-05-25T12:18:54.740Z,8.20
2018-05-25T12:21:21.408Z,12.00
2018-05-25T12:23:48.923Z,9.63
2018-05-25T12:26:16.012Z,10.63
2018-05-25T12:28:50.044Z,9.53
2018-05-25T12:31:17.335Z,8.67
2018-05-25T12:33:44.344Z,8.67
2018-05-25T12:36:10.621Z,8.53
2018-05-25T12:38:37.165Z,9.50
2018-05-25T12:41:04.318Z,8.13
2018-05-25T12:43:30.578Z,8.93
2018-05-25T12:45:56.800Z,9.03
2018-05-25T12:48:23.656Z,8.77
2018-05-25T12:50:50.402Z,9.00
2018-05-25T12:53:17.157Z,9.30
2018-05-25T12:55:43.961Z,7.80
2018-05-25T12:58:10.225Z,9.43
2018-05-25T13:00:37.064Z,9.50
2018-05-25T13:03:03.584Z,7.83
2018-05-25T13:05:30.773Z,8.57
2018-05-25T13:07:56.993Z,7.80
2018-05-25T13:10:24.246Z,8.50
2018-05-25T13:12:51.858Z,6.93
2018-05-25T13:15:18.369Z,8.23
2018-05-25T13:17:45.393Z,6.87
2018-05-25T13:20:11.840Z,8.70
2018-05-25T13:22:38.491Z,7.70
2018-05-25T13:25:05.310Z,8.03
2018-05-25T13:27:31.897Z,7.60
2018-05-25T13:29:58.196Z,7.63
2018-05-25T13:32:24.531Z,7.00
2018-05-25T13:34:50.749Z,7.77
2018-05-25T13:37:17.083Z,7.63
2018-05-25T13:39:43.336Z,7.67
2018-05-25T13:42:10.221Z,7.13
2018-05-25T13:44:37.757Z,7.67
2018-05-25T13:47:04.581Z,6.00
2018-05-25T13:49:30.829Z,5.97
2018-05-25T13:51:57.115Z,6.07
2018-05-25T13:54:24.329Z,6.27
2018-05-25T13:56:51.131Z,5.50
2018-05-25T13:59:17.872Z,5.53
2018-05-25T14:01:44.653Z,4.40
2018-05-25T14:04:11.592Z,5.57
2018-05-25T14:06:38.658Z,5.80
2018-05-25T14:09:04.890Z,5.43
2018-05-25T14:11:31.134Z,4.77
2018-05-25T14:13:57.385Z,6.00
2018-05-25T14:16:24.652Z,6.00
2018-05-25T14:18:52.305Z,5.90
2018-05-25T14:21:19.050Z,6.57
2018-05-25T14:23:45.277Z,5.37
2018-05-25T14:26:12.188Z,6.67
2018-05-25T14:28:38.425Z,6.10
2018-05-25T14:31:06.473Z,6.20
2018-05-25T14:33:33.491Z,6.13
2018-05-25T14:35:59.703Z,5.80
2018-05-25T14:38:26.100Z,6.63
2018-05-25T14:40:52.318Z,6.90
2018-05-25T14:43:19.127Z,7.60
2018-05-25T14:45:47.629Z,6.83
2018-05-25T14:48:13.846Z,7.03
2018-05-25T14:50:41.364Z,6.87
2018-05-25T14:53:08.281Z,8.10
2018-05-25T14:55:35.353Z,7.20
2018-05-25T14:58:01.615Z,7.00
2018-05-25T15:00:28.570Z,9.10
2018-05-25T15:02:54.946Z,7.93
2018-05-25T15:05:21.960Z,7.73
2018-05-25T15:07:48.268Z,7.00
2018-05-25T15:10:16.239Z,7.50
2018-05-25T15:12:44.233Z,7.40
2018-05-25T15:15:11.015Z,7.03
2018-05-25T15:17:37.954Z,6.60
2018-05-25T15:20:05.526Z,8.30
2018-05-25T15:22:32.315Z,7.67
2018-05-25T15:24:59.382Z,7.40
2018-05-25T15:27:27.112Z,8.53
2018-05-25T15:29:53.328Z,8.37
2018-05-25T15:32:20.978Z,7.97
2018-05-25T15:34:47.946Z,8.10
2018-05-25T15:37:15.865Z,8.27
2018-05-25T15:39:42.799Z,9.57
2018-05-25T15:42:09.239Z,7.93
2018-05-25T15:44:36.250Z,8.00
2018-05-25T15:47:03.119Z,8.60
2018-05-25T15:49:29.349Z,7.60
2018-05-25T15:51:56.126Z,7.67
2018-05-25T15:54:23.174Z,7.40
2018-05-25T15:56:50.641Z,7.60
2018-05-25T15:59:17.608Z,7.10
2018-05-25T16:01:43.970Z,7.17
2018-05-25T16:04:10.989Z,7.67
2018-05-25T16:06:37.203Z,6.90
2018-05-25T16:09:04.506Z,6.47
2018-05-25T16:11:31.898Z,6.47
2018-05-25T16:13:58.860Z,6.70
2018-05-25T16:16:25.870Z,6.67
2018-05-25T16:18:53.481Z,7.07
2018-05-25T16:21:20.322Z,6.70
2018-05-25T16:23:48.492Z,6.23
2018-05-25T16:26:15.905Z,6.73
2018-05-25T16:28:43.113Z,5.50
2018-05-25T16:31:10.753Z,5.70
2018-05-25T16:33:37.527Z,5.80
2018-05-25T16:36:04.494Z,6.33
2018-05-25T16:38:31.318Z,6.53
2018-05-25T16:40:57.698Z,6.80
2018-05-25T16:43:24.836Z,5.80
2018-05-25T16:45:52.423Z,6.37
2018-05-25T16:48:18.861Z,6.77
2018-05-25T16:50:46.343Z,6.43
2018-05-25T16:53:14.319Z,6.40
2018-05-25T16:55:41.110Z,8.90
2018-05-25T16:58:08.585Z,12.10
2018-05-25T17:00:35.422Z,7.37
2018-05-25T17:03:02.162Z,5.40
2018-05-25T17:05:28.386Z,5.80
2018-05-25T17:07:55.554Z,5.90
2018-05-25T17:10:22.343Z,5.50
2018-05-25T17:12:49.116Z,5.63
2018-05-25T17:15:15.416Z,4.87
2018-05-25T17:17:42.124Z,11.67
2018-05-25T17:20:09.355Z,5.97
2018-05-25T17:22:36.266Z,6.40
2018-05-25T17:25:04.181Z,6.90
2018-05-25T17:27:30.864Z,5.40
2018-05-25T17:29:57.956Z,6.07
2018-05-25T17:32:24.204Z,6.30
2018-05-25T17:34:51.067Z,5.23
2018-05-25T17:37:17.537Z,5.97
2018-05-25T17:39:44.389Z,5.70
2018-05-25T17:42:10.644Z,6.90
2018-05-25T17:44:38.012Z,5.60
2018-05-25T17:47:04.654Z,5.57
2018-05-25T17:49:31.002Z,5.17
2018-05-25T17:51:57.527Z,5.27
2018-05-25T17:54:24.613Z,5.37
2018-05-25T17:56:50.864Z,6.53
2018-05-25T17:59:17.336Z,5.93
2018-05-25T18:01:44.342Z,6.93
2018-05-25T18:04:10.911Z,6.10
2018-05-25T18:06:38.526Z,6.87
2018-05-25T18:09:04.759Z,7.50
2018-05-25T18:11:31.090Z,7.93
2018-05-25T18:13:57.318Z,5.90
2018-05-25T18:16:23.754Z,11.83
2018-05-25T18:18:50.205Z,6.77
2018-05-25T18:21:17.475Z,6.57
2018-05-25T18:23:44.689Z,6.73
2018-05-25T18:26:11.001Z,6.50
2018-05-25T18:28:38.574Z,6.20
2018-05-25T18:31:05.671Z,7.03
2018-05-25T18:33:33.169Z,7.50
2018-05-25T18:36:00.205Z,7.27
2018-05-25T18:38:27.880Z,7.60
2018-05-25T18:40:54.094Z,7.93
2018-05-25T18:43:21.239Z,7.20
2018-05-25T18:45:48.832Z,6.30
2018-05-25T18:48:16.467Z,6.23
2018-05-25T18:50:43.720Z,6.60
2018-05-25T18:53:11.476Z,7.73
2018-05-25T18:55:38.087Z,9.07
2018-05-25T18:58:06.091Z,9.20
2018-05-25T19:00:33.173Z,7.03
2018-05-25T19:02:59.399Z,7.23
2018-05-25T19:05:26.275Z,7.70
2018-05-25T19:07:52.509Z,12.27
2018-05-25T19:10:18.776Z,7.90
2018-05-25T19:12:44.986Z,8.43
2018-05-25T19:15:12.013Z,8.10
2018-05-25T19:17:38.351Z,10.30
2018-05-25T19:20:05.388Z,9.87
2018-05-25T19:22:32.268Z,10.70
2018-05-25T19:24:59.319Z,8.20
2018-05-25T19:27:27.414Z,7.03
2018-05-25T19:29:54.317Z,7.03
2018-05-25T19:32:21.324Z,7.63
2018-05-25T19:34:47.571Z,9.73
2018-05-25T19:37:14.693Z,7.47
2018-05-25T19:39:41.312Z,8.13
2018-05-25T19:42:08.445Z,8.50
2018-05-25T19:44:35.473Z,13.20
2018-05-25T19:47:02.466Z,7.90
2018-05-25T19:49:28.931Z,8.03
2018-05-25T19:51:56.535Z,7.27
2018-05-25T19:54:23.616Z,8.20
2018-05-25T19:56:50.916Z,7.57
2018-05-25T19:59:18.429Z,7.20
2018-05-25T20:01:45.698Z,6.50
2018-05-25T20:04:12.540Z,7.63
2018-05-25T20:06:39.196Z,14.63
2018-05-25T20:09:05.486Z,8.00
2018-05-25T20:11:33.092Z,7.80
2018-05-25T20:14:00.731Z,8.50
2018-05-25T20:16:28.491Z,8.00
2018-05-25T20:18:55.345Z,10.37
2018-05-25T20:21:21.757Z,10.00
2018-05-25T20:23:47.963Z,8.90
2018-05-25T20:26:14.822Z,8.47
2018-05-25T20:28:41.953Z,8.47
2018-05-25T20:31:08.203Z,8.70
2018-05-25T20:33:34.408Z,7.77
2018-05-25T20:36:00.697Z,10.37
2018-05-25T20:38:26.950Z,9.40
2018-05-25T20:40:53.545Z,8.60
2018-05-25T20:43:20.448Z,7.83
2018-05-25T20:45:47.356Z,9.70
2018-05-25T20:48:14.231Z,10.40
2018-05-25T20:50:41.500Z,12.43
2018-05-25T20:53:07.767Z,12.17
2018-05-25T20:55:35.940Z,7.97
2018-05-25T20:58:02.903Z,7.67
2018-05-25T21:00:29.848Z,7.07
2018-05-25T21:02:57.460Z,7.73
2018-05-25T21:05:23.701Z,7.77
2018-05-25T21:07:50.698Z,11.33
2018-05-25T21:10:16.997Z,8.13
2018-05-25T21:12:44.641Z,8.00
2018-05-25T21:15:10.877Z,9.93
2018-05-25T21:17:37.857Z,9.27
2018-05-25T21:20:04.765Z,8.37
2018-05-25T21:22:31.869Z,7.93
2018-05-25T21:24:58.280Z,8.03
2018-05-25T21:29:58.055Z,9.83
2018-05-25T21:32:25.231Z,7.73
2018-05-25T21:34:52.088Z,7.20
2018-05-25T21:37:18.494Z,8.00
2018-05-25T21:39:45.096Z,11.20
2018-05-25T21:42:12.721Z,8.97
2018-05-25T21:44:39.410Z,7.20
2018-05-25T21:47:06.253Z,7.57
2018-05-25T21:49:32.740Z,9.07
2018-05-25T21:52:00.360Z,8.80
2018-05-25T21:54:27.102Z,8.33
2018-05-25T21:56:53.895Z,8.97
2018-05-25T21:59:20.716Z,9.00
2018-05-25T22:01:47.010Z,8.73
2018-05-25T22:04:13.961Z,9.30
2018-05-25T22:06:40.916Z,8.40
2018-05-25T22:09:07.824Z,8.20
2018-05-25T22:11:35.600Z,7.50
2018-05-25T22:14:02.416Z,8.90
2018-05-25T22:16:30.655Z,8.40
2018-05-25T22:18:57.551Z,7.60
2018-05-25T22:21:24.549Z,8.60
2018-05-25T22:23:50.823Z,7.50
2018-05-25T22:26:18.730Z,7.80
2018-05-25T22:28:46.776Z,7.80
2018-05-25T22:31:13.607Z,7.73
2018-05-25T22:33:40.582Z,9.13
2018-05-25T22:36:09.150Z,8.17
2018-05-25T22:38:36.217Z,9.17
2018-05-25T22:41:11.134Z,12.23
2018-05-25T22:43:49.610Z,9.40
2018-05-25T22:46:28.733Z,9.97
2018-05-25T22:49:07.975Z,9.63
2018-05-25T22:51:46.407Z,10.23
2018-05-25T22:54:30.393Z,9.60
2018-05-25T22:56:57.368Z,7.97
2018-05-25T22:59:24.030Z,9.00
2018-05-25T23:01:51.082Z,9.30
2018-05-25T23:04:17.360Z,9.50
2018-05-25T23:06:44.606Z,9.13
2018-05-25T23:09:11.348Z,9.27
2018-05-25T23:11:38.869Z,10.83
2018-05-25T23:14:06.457Z,8.20
2018-05-25T23:16:33.405Z,9.07
2018-05-25T23:19:01.644Z,10.37
2018-05-25T23:21:28.553Z,10.13
2018-05-25T23:23:56.100Z,8.80
2018-05-25T23:26:22.869Z,13.13
2018-05-25T23:28:50.057Z,9.70
2018-05-25T23:31:17.047Z,9.00
2018-05-25T23:33:43.321Z,10.00
2018-05-25T23:36:10.714Z,8.97
2018-05-25T23:38:37.984Z,11.57
2018-05-25T23:41:04.756Z,9.80
2018-05-25T23:43:31.296Z,9.23
2018-05-25T23:45:59.259Z,11.57
2018-05-25T23:48:26.176Z,9.67
2018-05-25T23:50:53.050Z,10.20
2018-05-25T23:53:19.732Z,11.40
2018-05-25T23:55:46.630Z,8.43
2018-05-25T23:58:14.122Z,8.83
